Time;durP1;ratioP1;P1;durP2;ratioP2;P2;SDS_P1;SDS_P2;PMS_P1;PMS_P2;Temp;Humidity;BMP_temperature;BMP_pressure;BME280_temperature;BME280_humidity;BME280_pressure;Samples;Min_cycle;Max_cycle;Signal;HPM_P1;HPM_P2
2023/08/18 00:01:38;;;;;;;3.85;2.67;;;;;;;19.29;97.95;96670.63;5033979;28;20036;-68
2023/08/18 00:04:04;;;;;;;4.68;2.85;;;;;;;19.26;97.95;96660.38;5034387;28;20426;-67
2023/08/18 00:06:29;;;;;;;4.88;2.60;;;;;;;19.26;98.08;96652.03;5034966;28;20040;-67
2023/08/18 00:08:55;;;;;;;5.78;2.80;;;;;;;19.18;98.83;96655.38;5016963;28;20399;-67
2023/08/18 00:11:20;;;;;;;4.50;2.60;;;;;;;19.15;99.12;96653.47;5032763;28;20498;-67
2023/08/18 00:13:46;;;;;;;5.45;2.55;;;;;;;19.15;99.03;96650.69;5033574;28;20036;-68
2023/08/18 00:16:12;;;;;;;6.70;2.67;;;;;;;19.14;99.23;96649.09;5033704;28;20494;-67
2023/08/18 00:18:37;;;;;;;7.22;3.03;;;;;;;19.14;99.27;96638.00;5033639;28;20076;-68
2023/08/18 00:21:03;;;;;;;4.18;2.38;;;;;;;19.16;99.28;96639.16;5033503;28;20391;-67
2023/08/18 00:23:28;;;;;;;5.43;2.33;;;;;;;19.12;99.12;96638.41;5034741;28;20120;-67
2023/08/18 00:25:53;;;;;;;4.25;2.60;;;;;;;19.07;100.00;96636.16;5035010;28;20036;-67
2023/08/18 00:28:19;;;;;;;10.98;2.85;;;;;;;19.00;100.00;96637.06;5035163;28;20033;-67
2023/08/18 00:30:44;;;;;;;4.15;2.25;;;;;;;18.99;100.00;96624.38;5033074;28;20063;-67
2023/08/18 00:33:09;;;;;;;4.43;2.47;;;;;;;19.00;100.00;96627.97;5034043;28;20034;-67
2023/08/18 00:35:35;;;;;;;6.18;2.63;;;;;;;18.95;100.00;96629.22;5034744;28;20160;-67
2023/08/18 00:38:00;;;;;;;5.18;2.47;;;;;;;18.88;100.00;96641.22;5035241;28;20036;-68
2023/08/18 00:40:26;;;;;;;7.72;3.17;;;;;;;18.86;100.00;96642.88;5033942;28;20033;-67
2023/08/18 00:42:51;;;;;;;5.03;2.80;;;;;;;18.87;100.00;96634.13;5033213;28;20033;-68
2023/08/18 00:45:17;;;;;;;7.28;2.63;;;;;;;18.85;100.00;96641.28;5033475;28;20044;-67
2023/08/18 00:47:43;;;;;;;8.40;2.67;;;;;;;18.82;100.00;96642.94;5033298;28;20439;-67
2023/08/18 00:50:11;;;;;;;5.78;2.85;;;;;;;18.90;100.00;96644.34;5032016;28;20116;-68
2023/08/18 00:52:41;;;;;;;4.68;2.58;;;;;;;18.90;100.00;96643.56;5032851;28;20486;-67
2023/08/18 00:55:09;;;;;;;5.97;2.53;;;;;;;18.89;100.00;96642.81;5033523;28;20395;-67
2023/08/18 00:57:36;;;;;;;8.98;2.85;;;;;;;18.89;100.00;96636.47;5033429;28;20052;-67
2023/08/18 01:00:02;;;;;;;6.55;2.92;;;;;;;18.81;100.00;96633.03;5033796;28;20120;-67
2023/08/18 01:02:27;;;;;;;5.53;3.00;;;;;;;18.81;100.00;96633.03;5038558;28;20550;-67
2023/08/18 01:04:54;;;;;;;5.53;2.72;;;;;;;18.79;100.00;96634.63;5033644;28;20057;-67
2023/08/18 01:07:19;;;;;;;6.40;2.80;;;;;;;18.71;100.00;96639.53;5033190;28;20181;-67
2023/08/18 01:09:45;;;;;;;5.72;2.67;;;;;;;18.58;100.00;96639.31;5033122;28;20037;-67
2023/08/18 01:12:56;;;;;;;5.55;2.50;;;;;;;18.58;100.00;96633.75;5033919;28;20060;-67
2023/08/18 01:15:32;;;;;;;8.52;3.20;;;;;;;18.53;100.00;96635.03;5018283;28;20041;-67
2023/08/18 01:18:01;;;;;;;6.00;3.03;;;;;;;18.50;100.00;96630.34;5038090;28;20029;-67
2023/08/18 01:20:27;;;;;;;5.20;2.90;;;;;;;18.49;100.00;96628.78;5033817;28;20392;-67
2023/08/18 01:22:57;;;;;;;7.15;3.15;;;;;;;18.41;100.00;96634.84;5034898;28;20030;-67
2023/08/18 01:25:23;;;;;;;7.78;3.30;;;;;;;18.38;100.00;96624.59;5035010;28;20036;-67
2023/08/18 01:27:49;;;;;;;5.22;2.80;;;;;;;18.27;100.00;96628.31;5035134;28;20033;-67
2023/08/18 01:30:16;;;;;;;7.35;2.80;;;;;;;18.20;100.00;96633.97;5034116;28;20057;-67
2023/08/18 01:32:55;;;;;;;6.20;2.95;;;;;;;18.19;100.00;96629.63;5033317;28;20040;-67
2023/08/18 01:35:25;;;;;;;8.85;2.72;;;;;;;18.18;100.00;96630.81;5033318;28;20045;-67
2023/08/18 01:37:54;;;;;;;7.50;2.97;;;;;;;18.13;100.00;96634.88;5033668;28;20033;-67
2023/08/18 01:40:23;;;;;;;5.85;2.65;;;;;;;18.11;100.00;96631.75;5033358;28;20160;-67
2023/08/18 01:42:49;;;;;;;7.38;2.95;;;;;;;18.15;100.00;96632.47;5032949;28;20033;-67
2023/08/18 01:45:15;;;;;;;4.68;2.67;;;;;;;18.15;100.00;96631.69;5033487;28;20041;-67
2023/08/18 01:47:40;;;;;;;5.00;2.97;;;;;;;18.14;100.00;96638.41;5034346;28;20029;-67
2023/08/18 01:50:06;;;;;;;9.65;3.00;;;;;;;18.14;100.00;96630.88;5034437;28;20026;-67
2023/08/18 01:52:32;;;;;;;8.27;2.88;;;;;;;18.19;100.00;96628.88;5034027;28;20049;-68
2023/08/18 01:54:57;;;;;;;4.00;2.70;;;;;;;18.23;100.00;96624.03;5035343;28;20026;-67
2023/08/18 01:57:22;;;;;;;5.55;3.10;;;;;;;18.21;100.00;96630.00;5039207;28;20073;-67
2023/08/18 01:59:48;;;;;;;8.77;2.60;;;;;;;18.22;100.00;96622.47;5038161;28;20315;-68
2023/08/18 02:02:13;;;;;;;5.45;3.03;;;;;;;18.17;100.00;96620.97;5037041;28;20041;-67
2023/08/18 02:04:39;;;;;;;8.02;3.13;;;;;;;18.12;100.00;96618.66;5037053;28;20040;-67
2023/08/18 02:07:04;;;;;;;4.95;2.88;;;;;;;18.12;100.00;96613.88;5037243;28;20040;-67
2023/08/18 02:09:30;;;;;;;6.65;2.85;;;;;;;18.12;100.00;96619.44;5036990;28;20037;-67
2023/08/18 02:11:55;;;;;;;7.20;2.88;;;;;;;18.09;100.00;96611.94;5020453;28;20083;-67
2023/08/18 02:14:21;;;;;;;6.13;3.20;;;;;;;18.07;100.00;96611.59;5039010;28;20100;-67
2023/08/18 02:16:47;;;;;;;5.43;2.78;;;;;;;18.01;100.00;96616.03;5038243;28;20216;-67
2023/08/18 02:19:13;;;;;;;7.28;3.05;;;;;;;17.95;100.00;96614.91;5036959;28;20615;-67
2023/08/18 02:21:38;;;;;;;6.05;2.80;;;;;;;17.93;100.00;96628.41;5036827;28;20056;-67
2023/08/18 02:24:04;;;;;;;9.25;3.08;;;;;;;17.88;100.00;96613.06;5036438;28;20029;-67
2023/08/18 02:26:29;;;;;;;7.25;2.78;;;;;;;17.87;100.00;96619.00;5037002;28;20065;-67
2023/08/18 02:28:55;;;;;;;9.68;3.10;;;;;;;17.88;100.00;96617.78;5036402;28;20029;-67
2023/08/18 02:31:20;;;;;;;9.20;3.35;;;;;;;17.85;100.00;96622.19;5036707;28;20036;-67
2023/08/18 02:33:46;;;;;;;5.90;2.97;;;;;;;17.93;100.00;96633.94;5036095;28;20104;-68
2023/08/18 02:36:12;;;;;;;8.07;3.42;;;;;;;17.89;100.00;96628.47;5036638;28;20083;-67
2023/08/18 02:38:38;;;;;;;6.32;3.08;;;;;;;17.94;100.00;96635.53;5036164;28;20029;-68
2023/08/18 02:41:04;;;;;;;6.90;3.30;;;;;;;17.91;100.00;96634.38;5037932;28;20504;-68
2023/08/18 02:43:29;;;;;;;8.25;3.90;;;;;;;17.94;100.00;96635.53;5038112;28;20040;-67
2023/08/18 02:45:58;;;;;;;6.90;3.35;;;;;;;17.93;100.00;96636.72;5038174;28;20064;-66
2023/08/18 02:48:28;;;;;;;6.30;3.17;;;;;;;17.88;100.00;96632.44;5038044;28;20037;-67
2023/08/18 02:51:08;;;;;;;6.57;3.25;;;;;;;17.87;100.00;96638.41;5037539;28;20041;-67
2023/08/18 02:53:34;;;;;;;4.22;2.67;;;;;;;17.89;100.00;96636.00;5035552;28;20025;-68
2023/08/18 02:55:59;;;;;;;6.65;3.15;;;;;;;17.85;100.00;96624.97;5035662;28;20045;-68
2023/08/18 02:58:29;;;;;;;5.88;3.20;;;;;;;17.85;100.00;96629.69;5035405;28;20087;-68
2023/08/18 03:00:55;;;;;;;;;;;;;;;17.84;100.00;96633.66;5040418;28;20029;-68
2023/08/18 03:03:23;;;;;;;5.03;3.08;;;;;;;17.82;100.00;96633.28;5043027;28;19909;-68
2023/08/18 03:05:49;;;;;;;8.25;3.00;;;;;;;17.73;100.00;96626.25;5035165;28;20037;-68
2023/08/18 03:08:15;;;;;;;7.75;3.10;;;;;;;17.77;100.00;96631.75;5035718;28;20037;-69
2023/08/18 03:10:40;;;;;;;4.28;3.00;;;;;;;17.70;100.00;96624.34;5035608;28;20037;-68
2023/08/18 03:13:06;;;;;;;9.07;3.42;;;;;;;17.60;100.00;96625.25;5034413;28;20033;-68
2023/08/18 03:15:31;;;;;;;7.00;3.33;;;;;;;17.54;100.00;96622.16;5036670;28;20033;-69
2023/08/18 03:17:57;;;;;;;9.95;3.50;;;;;;;17.53;100.00;96617.03;5037659;28;20092;-68
2023/08/18 03:20:22;;;;;;;4.90;2.90;;;;;;;17.49;100.00;96624.63;5035620;28;20387;-69
2023/08/18 03:22:47;;;;;;;6.18;2.92;;;;;;;17.46;100.00;96626.22;5034241;28;20067;-68
2023/08/18 03:25:13;;;;;;;5.57;3.13;;;;;;;17.42;100.00;96622.72;5035383;28;20030;-68
2023/08/18 03:27:40;;;;;;;5.88;3.42;;;;;;;17.42;100.00;96621.94;5035548;28;20033;-68
2023/08/18 03:30:07;;;;;;;8.20;3.28;;;;;;;17.38;100.00;96621.97;5034933;28;20034;-67
2023/08/18 03:32:32;;;;;;;9.38;3.30;;;;;;;17.42;100.00;96625.47;5035020;28;20034;-68
2023/08/18 03:34:58;;;;;;;9.32;3.30;;;;;;;17.42;100.00;96624.69;5036704;28;20035;-68
2023/08/18 03:37:23;;;;;;;8.32;3.20;;;;;;;17.42;100.00;96625.47;5035243;28;20111;-68
2023/08/18 03:39:52;;;;;;;4.63;3.15;;;;;;;17.43;100.00;96631.78;5034536;28;20447;-68
2023/08/18 03:42:17;;;;;;;5.78;3.05;;;;;;;17.44;100.00;96627.84;5033862;28;20029;-67
2023/08/18 03:44:43;;;;;;;4.75;3.17;;;;;;;17.44;100.00;96627.84;5034416;28;20033;-67
2023/08/18 03:47:08;;;;;;;7.15;3.00;;;;;;;17.39;100.00;96631.81;5034246;28;20379;-67
2023/08/18 03:49:33;;;;;;;3.75;2.85;;;;;;;17.35;100.00;96639.41;5035097;28;20044;-67
2023/08/18 03:51:59;;;;;;;5.57;3.15;;;;;;;17.30;100.00;96629.56;5035498;28;20115;-67
2023/08/18 03:54:24;;;;;;;5.95;2.78;;;;;;;17.25;100.00;96635.56;5034786;28;20397;-64
2023/08/18 03:56:50;;;;;;;7.32;3.15;;;;;;;17.27;100.00;96627.63;5034184;28;20029;-67
2023/08/18 03:59:16;;;;;;;8.32;2.70;;;;;;;17.34;100.00;96635.03;5033733;28;20453;-67
2023/08/18 04:01:41;;;;;;;6.50;2.65;;;;;;;17.45;100.00;96630.19;5034128;28;20041;-66
2023/08/18 04:04:06;;;;;;;6.68;2.75;;;;;;;17.53;100.00;96626.13;5033866;28;20105;-67
2023/08/18 04:06:32;;;;;;;5.55;2.75;;;;;;;17.53;100.00;96628.88;5033837;28;20060;-66
2023/08/18 04:09:06;;;;;;;7.13;3.15;;;;;;;17.46;100.00;96633.75;5034709;28;20030;-66
2023/08/18 04:11:35;;;;;;;6.40;2.95;;;;;;;17.41;100.00;96637.72;5033842;28;20038;-67
2023/08/18 04:14:02;;;;;;;6.28;2.85;;;;;;;17.33;100.00;96631.50;5033512;28;20044;-67
2023/08/18 04:16:31;;;;;;;7.00;3.65;;;;;;;17.29;100.00;96647.38;5016159;28;20029;-67
2023/08/18 04:18:57;;;;;;;7.55;3.25;;;;;;;17.28;100.00;96642.25;5032967;28;20037;-67
2023/08/18 04:21:22;;;;;;;9.25;3.10;;;;;;;17.19;100.00;96645.50;5034083;28;20029;-67
2023/08/18 04:23:48;;;;;;;7.43;3.50;;;;;;;17.10;100.00;96643.22;5032017;28;20087;-67
2023/08/18 04:26:13;;;;;;;4.88;2.83;;;;;;;17.18;100.00;96641.19;5034434;28;20071;-67
2023/08/18 04:28:38;;;;;;;8.02;3.72;;;;;;;17.19;100.00;96648.25;5033587;28;20120;-66
2023/08/18 04:31:04;;;;;;;6.60;3.25;;;;;;;17.15;100.00;96644.75;5038748;28;20034;-67
2023/08/18 04:33:29;;;;;;;6.53;3.47;;;;;;;17.13;100.00;96647.16;5034561;28;20029;-66
2023/08/18 04:35:55;;;;;;;5.30;3.20;;;;;;;17.16;100.00;96652.66;5034200;28;20059;-67
2023/08/18 04:38:20;;;;;;;7.50;3.00;;;;;;;17.18;100.00;96644.72;5033673;28;20160;-67
2023/08/18 04:40:59;;;;;;;4.55;3.33;;;;;;;17.21;100.00;96651.41;5069792;28;20394;-68
2023/08/18 04:43:26;;;;;;;5.30;3.20;;;;;;;17.20;100.00;96649.84;5049895;28;20494;-67
2023/08/18 04:45:52;;;;;;;6.25;3.22;;;;;;;17.16;100.00;96655.41;5050111;28;20067;-67
2023/08/18 04:48:19;;;;;;;5.70;3.33;;;;;;;17.06;100.00;96652.75;5057625;28;20033;-67
2023/08/18 04:50:44;;;;;;;5.97;3.25;;;;;;;17.01;100.00;96648.44;5050794;28;20029;-67
2023/08/18 04:53:10;;;;;;;7.10;3.78;;;;;;;17.08;100.00;96648.38;5052259;28;20081;-67
2023/08/18 04:55:35;;;;;;;6.47;3.50;;;;;;;17.24;100.00;96652.59;5050194;28;20060;-67
2023/08/18 04:58:01;;;;;;;9.50;3.53;;;;;;;17.34;100.00;96648.88;5049647;28;20128;-67
2023/08/18 05:00:27;;;;;;;7.43;3.45;;;;;;;17.43;100.00;96651.16;5049938;28;20025;-67
2023/08/18 05:02:53;;;;;;;5.82;3.63;;;;;;;17.47;100.00;96652.72;5051348;28;20033;-67
2023/08/18 05:05:18;;;;;;;11.52;4.72;;;;;;;17.58;100.00;96650.59;5051984;28;20478;-67
2023/08/18 05:07:45;;;;;;;8.32;3.40;;;;;;;17.73;100.00;96647.66;5050442;28;20095;-67
2023/08/18 05:10:10;;;;;;;8.18;3.85;;;;;;;17.91;100.00;96651.00;5050018;28;20030;-67
2023/08/18 05:12:35;;;;;;;6.40;4.10;;;;;;;18.03;100.00;96655.19;5049863;28;20047;-67
2023/08/18 05:15:01;;;;;;;9.15;3.47;;;;;;;18.26;100.00;96660.03;5048176;28;20391;-67
2023/08/18 05:17:27;;;;;;;6.00;3.47;;;;;;;18.69;100.00;96664.09;5049834;28;20112;-67
2023/08/18 05:19:52;;;;;;;8.57;3.63;;;;;;;19.37;100.00;96651.06;5051238;28;20021;-67
2023/08/18 05:22:21;;;;;;;6.28;3.60;;;;;;;20.29;100.00;96653.13;5050401;28;20037;-67
2023/08/18 05:24:47;;;;;;;8.57;3.37;;;;;;;21.40;92.13;96663.53;5051412;28;20088;-67
2023/08/18 05:27:14;;;;;;;5.18;2.97;;;;;;;22.34;88.17;96667.25;5051765;28;20105;-68
2023/08/18 05:29:39;;;;;;;8.35;2.72;;;;;;;23.54;76.98;96667.72;5051160;28;20112;-67
2023/08/18 05:32:04;;;;;;;7.20;2.40;;;;;;;23.27;74.39;96675.41;5050197;28;20065;-67
2023/08/18 05:34:30;;;;;;;9.25;3.22;;;;;;;24.37;70.05;96674.63;5050738;28;20029;-67
2023/08/18 05:36:55;;;;;;;7.95;2.83;;;;;;;25.54;64.10;96678.69;5050699;28;20386;-67
2023/08/18 05:39:20;;;;;;;8.82;2.65;;;;;;;25.93;61.53;96689.44;5050222;28;20045;-67
2023/08/18 05:41:46;;;;;;;4.63;2.15;;;;;;;26.76;58.23;96692.03;5049722;28;20034;-67
2023/08/18 05:44:12;;;;;;;6.78;2.72;;;;;;;27.70;54.36;96690.97;5048938;28;20036;-67
2023/08/18 05:46:37;;;;;;;4.97;2.15;;;;;;;28.47;50.37;96697.72;5050018;28;20029;-67
2023/08/18 05:49:03;;;;;;;4.10;2.33;;;;;;;28.55;49.56;96707.34;5050275;28;20029;-66
2023/08/18 05:51:29;;;;;;;6.47;1.90;;;;;;;29.28;47.92;96710.50;5041038;28;20029;-68
2023/08/18 05:53:55;;;;;;;5.18;1.85;;;;;;;29.80;44.92;96714.75;5036983;28;20033;-67
2023/08/18 05:56:21;;;;;;;4.55;1.90;;;;;;;30.34;45.24;96711.47;5036626;28;20550;-67
2023/08/18 05:58:46;;;;;;;3.70;1.95;;;;;;;31.22;42.81;96715.50;5035299;28;20112;-67
2023/08/18 06:01:11;;;;;;;4.78;2.20;;;;;;;31.76;41.47;96726.03;5036034;28;20033;-67
2023/08/18 06:03:38;;;;;;;6.25;2.08;;;;;;;31.86;41.37;96717.34;5035835;28;20391;-67
2023/08/18 06:06:03;;;;;;;4.70;2.10;;;;;;;30.58;42.98;96725.31;5036425;28;20473;-67
2023/08/18 06:08:29;;;;;;;3.47;1.60;;;;;;;31.52;41.91;96728.53;5036034;28;20076;-66
2023/08/18 06:10:55;;;;;;;5.80;2.20;;;;;;;31.63;41.66;96731.41;5035431;28;20037;-68
2023/08/18 06:13:20;;;;;;;3.40;1.73;;;;;;;32.23;40.10;96730.59;5035136;28;20042;-67
2023/08/18 06:15:46;;;;;;;8.30;2.30;;;;;;;32.30;39.19;96733.69;5035780;28;20465;-68
2023/08/18 06:18:11;;;;;;;3.17;1.67;;;;;;;32.94;38.80;96733.22;5037146;28;20036;-66
2023/08/18 06:20:37;;;;;;;2.70;1.70;;;;;;;33.24;38.07;96741.19;5036260;28;20026;-67
2023/08/18 06:23:02;;;;;;;4.32;1.75;;;;;;;33.32;37.56;96740.13;5035568;28;20076;-68
2023/08/18 06:25:28;;;;;;;4.22;1.50;;;;;;;25.75;50.22;96707.81;5035857;28;20038;-67
2023/08/18 06:27:53;;;;;;;5.25;2.10;;;;;;;24.53;59.38;96712.81;5035337;28;20029;-67
2023/08/18 06:30:19;;;;;;;5.93;2.13;;;;;;;25.86;58.43;96712.19;5035108;28;20029;-67
2023/08/18 06:32:45;;;;;;;4.40;2.13;;;;;;;24.16;64.72;96706.22;5034728;28;20044;-67
2023/08/18 06:35:10;;;;;;;5.40;2.20;;;;;;;24.00;67.20;96702.41;5035243;28;20344;-67
2023/08/18 06:37:36;;;;;;;6.55;2.38;;;;;;;24.20;69.20;96701.25;5037630;28;20032;-66
2023/08/18 06:40:02;;;;;;;8.32;2.30;;;;;;;24.42;65.72;96710.41;5034888;28;20478;-67
2023/08/18 06:42:27;;;;;;;4.25;2.20;;;;;;;25.16;67.24;96707.13;5036441;28;20030;-67
2023/08/18 06:44:52;;;;;;;5.72;1.80;;;;;;;26.46;60.09;96716.28;5036207;28;20112;-67
2023/08/18 06:47:18;;;;;;;5.35;1.95;;;;;;;26.72;58.23;96710.28;5035129;28;20034;-67
2023/08/18 06:49:43;;;;;;;5.63;2.00;;;;;;;26.06;59.18;96709.69;5035192;28;20050;-66
2023/08/18 06:52:09;;;;;;;5.60;2.10;;;;;;;23.94;71.34;96709.81;5035749;28;20493;-67
2023/08/18 06:54:34;;;;;;;5.97;2.50;;;;;;;22.85;76.98;96705.50;5035087;28;20033;-67
2023/08/18 06:57:00;;;;;;;5.07;2.40;;;;;;;24.53;73.47;96709.25;5036268;28;20099;-67
2023/08/18 06:59:26;;;;;;;2.67;1.98;;;;;;;26.12;62.30;96718.25;5035739;28;20438;-67
2023/08/18 07:01:53;;;;;;;5.47;2.30;;;;;;;26.94;59.28;96721.25;5036566;28;20041;-67
2023/08/18 07:04:18;;;;;;;3.95;2.30;;;;;;;24.93;66.74;96714.06;5034349;28;20422;-70
2023/08/18 07:06:44;;;;;;;5.80;2.28;;;;;;;23.80;73.95;96707.53;5036471;28;20033;-68
2023/08/18 07:09:10;;;;;;;4.82;1.92;;;;;;;25.21;68.73;96711.31;5034988;28;20025;-68
2023/08/18 07:11:37;;;;;;;6.68;2.00;;;;;;;28.32;54.60;96717.44;5036103;28;20026;-66
2023/08/18 07:14:03;;;;;;;10.05;2.33;;;;;;;27.76;53.86;96725.59;5036246;28;20034;-67
2023/08/18 07:16:29;;;;;;;8.82;2.20;;;;;;;26.55;60.24;96723.91;5034801;28;20033;-68
2023/08/18 07:18:54;;;;;;;4.38;2.00;;;;;;;28.25;54.39;96723.44;5033078;28;20351;-68
2023/08/18 07:21:20;;;;;;;4.85;2.13;;;;;;;30.59;47.51;96727.59;5034204;28;20029;-68
2023/08/18 07:23:45;;;;;;;6.60;1.90;;;;;;;30.95;46.12;96735.88;5033880;28;20112;-66
2023/08/18 07:26:11;;;;;;;7.25;1.90;;;;;;;28.70;49.19;96740.38;5034461;28;20107;-66
2023/08/18 07:28:36;;;;;;;3.45;1.65;;;;;;;30.27;46.63;96740.91;5034251;28;20108;-68
2023/08/18 07:31:05;;;;;;;7.18;2.20;;;;;;;28.03;50.03;96735.88;5033990;28;20104;-68
2023/08/18 07:33:31;;;;;;;6.63;2.22;;;;;;;26.30;59.31;96731.47;5034002;28;20033;-67
2023/08/18 07:35:58;;;;;;;5.40;2.30;;;;;;;29.21;50.35;96746.78;5034062;28;20025;-67
2023/08/18 07:38:23;;;;;;;7.13;2.25;;;;;;;28.65;51.37;96752.31;5034281;28;20053;-67
2023/08/18 07:40:49;;;;;;;6.43;2.22;;;;;;;29.54;48.41;96752.13;5033751;28;20116;-68
2023/08/18 07:43:14;;;;;;;4.43;1.95;;;;;;;30.90;44.82;96756.38;5033700;28;20068;-69
2023/08/18 07:45:39;;;;;;;4.32;1.80;;;;;;;31.96;42.42;96755.47;5036670;28;20030;-67
2023/08/18 07:48:05;;;;;;;3.15;1.80;;;;;;;33.44;39.81;96768.47;5036463;28;20414;-66
2023/08/18 07:50:31;;;;;;;5.28;1.63;;;;;;;34.08;37.52;96768.53;5035973;28;20049;-68
2023/08/18 07:52:56;;;;;;;8.13;2.10;;;;;;;34.02;36.94;96774.25;5035265;28;20431;-67
2023/08/18 07:55:22;;;;;;;4.10;1.80;;;;;;;30.46;44.38;96758.34;5034355;28;20033;-68
2023/08/18 07:57:48;;;;;;;5.38;1.63;;;;;;;32.27;40.85;96770.75;5034807;28;20029;-68
2023/08/18 08:00:17;;;;;;;6.20;1.77;;;;;;;29.95;45.63;96769.09;5033661;28;20033;-68
2023/08/18 08:02:47;;;;;;;7.47;1.95;;;;;;;30.53;45.21;96759.94;5032043;28;20094;-68
2023/08/18 08:05:13;;;;;;;4.10;1.85;;;;;;;30.56;44.99;96756.09;5032874;28;20075;-68
2023/08/18 08:07:40;;;;;;;6.25;2.38;;;;;;;30.73;43.55;96753.44;5033996;28;20029;-68
2023/08/18 08:10:06;;;;;;;5.80;1.90;;;;;;;31.30;43.36;96752.56;5034684;28;20486;-67
2023/08/18 08:12:34;;;;;;;8.10;2.00;;;;;;;30.34;45.55;96754.63;5034262;28;20030;-67
2023/08/18 08:15:00;;;;;;;4.43;2.13;;;;;;;27.39;52.25;96744.81;5033686;28;20029;-68
2023/08/18 08:17:26;;;;;;;6.07;2.03;;;;;;;29.81;49.17;96750.19;5033350;28;20044;-68
2023/08/18 08:19:52;;;;;;;4.53;2.45;;;;;;;30.77;48.99;96742.66;5031723;28;20025;-68
2023/08/18 08:22:17;;;;;;;8.40;2.38;;;;;;;32.35;44.78;96755.59;5033093;28;20038;-67
2023/08/18 08:24:43;;;;;;;9.15;2.28;;;;;;;33.14;43.01;96758.47;5032981;28;20029;-67
2023/08/18 08:27:08;;;;;;;5.32;2.10;;;;;;;33.63;41.65;96760.94;5032824;28;20466;-68
2023/08/18 08:29:34;;;;;;;3.88;2.08;;;;;;;33.18;42.67;96761.06;5034098;28;20029;-68
2023/08/18 08:31:59;;;;;;;4.82;2.47;;;;;;;32.26;44.05;96758.66;5031698;28;20045;-67
2023/08/18 08:34:26;;;;;;;4.55;2.03;;;;;;;30.92;47.36;96756.69;5032729;28;20136;-67
2023/08/18 08:36:52;;;;;;;9.48;2.58;;;;;;;31.24;47.57;96752.56;5032996;28;20034;-67
2023/08/18 08:39:17;;;;;;;6.53;2.40;;;;;;;31.72;46.13;96753.06;5032652;28;20057;-68
2023/08/18 08:41:43;;;;;;;3.58;2.28;;;;;;;31.60;46.28;96755.84;5033628;28;20055;-67
2023/08/18 08:44:08;;;;;;;9.20;2.72;;;;;;;30.44;49.11;96756.00;5032640;28;20034;-67
2023/08/18 08:46:37;;;;;;;8.40;3.03;;;;;;;30.88;49.13;96749.19;5032714;28;20398;-67
2023/08/18 08:49:04;;;;;;;;;;;;;;;30.98;48.75;96746.19;5031597;28;20364;-68
2023/08/18 08:51:35;;;;;;;7.63;2.97;;;;;;;31.20;48.74;96751.22;5033202;28;20013;-68
2023/08/18 08:54:03;;;;;;;6.85;3.13;;;;;;;30.64;49.39;96748.72;5032659;28;20037;-67
2023/08/18 08:56:31;;;;;;;6.90;3.28;;;;;;;29.72;52.43;96751.84;5032679;28;20044;-68
2023/08/18 08:58:57;;;;;;;5.67;2.60;;;;;;;30.10;51.11;96758.47;5032770;28;20030;-68
2023/08/18 09:01:26;;;;;;;7.97;3.35;;;;;;;31.00;48.81;96758.53;5032400;28;20287;-67
2023/08/18 09:03:52;;;;;;;7.95;3.20;;;;;;;31.34;47.34;96767.25;5032247;28;20104;-67
2023/08/18 09:06:17;;;;;;;6.03;2.78;;;;;;;31.57;47.29;96759.69;5032904;28;20044;-67
2023/08/18 09:08:43;;;;;;;6.00;2.97;;;;;;;30.73;48.66;96757.03;5031931;28;20029;-67
2023/08/18 09:11:09;;;;;;;9.65;3.05;;;;;;;30.58;49.80;96760.00;5033845;28;20391;-68
2023/08/18 09:13:35;;;;;;;5.75;2.90;;;;;;;30.48;48.44;96767.09;5033755;28;20043;-67
2023/08/18 09:16:04;;;;;;;7.60;3.60;;;;;;;30.63;48.74;96762.09;5032172;28;20029;-67
2023/08/18 09:18:34;;;;;;;6.50;3.03;;;;;;;30.84;48.56;96762.75;5032159;28;20037;-68
2023/08/18 09:21:01;;;;;;;5.18;2.85;;;;;;;30.74;48.59;96755.75;5032754;28;20102;-68
2023/08/18 09:23:28;;;;;;;11.55;3.85;;;;;;;31.17;47.21;96763.53;5032790;28;20075;-67
2023/08/18 09:25:57;;;;;;;5.05;2.95;;;;;;;31.44;46.84;96760.13;5034140;28;20062;-66
2023/08/18 09:28:24;;;;;;;7.15;3.00;;;;;;;31.98;46.10;96767.84;5036569;28;20080;-67
2023/08/18 09:30:50;;;;;;;7.07;2.80;;;;;;;31.67;46.26;96765.13;5039141;28;20025;-67
2023/08/18 09:33:16;;;;;;;7.50;3.25;;;;;;;31.92;45.64;96761.38;5039032;28;20029;-67
2023/08/18 09:35:41;;;;;;;6.28;2.75;;;;;;;32.06;45.82;96758.88;5038704;28;20556;-67
2023/08/18 09:38:12;;;;;;;8.07;3.00;;;;;;;31.83;46.25;96765.19;5039505;28;20422;-68
2023/08/18 09:40:37;;;;;;;5.25;2.78;;;;;;;32.67;43.54;96763.91;5036882;28;20487;-67
2023/08/18 09:43:03;;;;;;;5.78;2.58;;;;;;;32.14;45.73;96759.91;5036665;28;20062;-67
2023/08/18 09:45:30;;;;;;;5.45;2.70;;;;;;;32.94;43.42;96762.34;5037524;28;20037;-66
2023/08/18 09:47:56;;;;;;;6.95;2.65;;;;;;;32.86;43.15;96760.53;5036941;28;20037;-68
2023/08/18 09:50:26;;;;;;;4.20;2.40;;;;;;;32.52;43.71;96760.50;5034687;28;20030;-67
2023/08/18 09:52:56;;;;;;;6.00;3.08;;;;;;;32.43;44.32;96755.88;5035820;28;20486;-67
2023/08/18 09:55:31;;;;;;;5.15;2.78;;;;;;;32.07;45.25;96747.03;5034962;28;20072;-67
2023/08/18 09:58:10;;;;;;;5.90;2.50;;;;;;;33.03;43.37;96754.88;5036347;28;20029;-67
2023/08/18 10:00:41;;;;;;;6.35;2.50;;;;;;;32.43;43.82;96744.53;5035462;28;20112;-67
2023/08/18 10:03:08;;;;;;;4.78;2.47;;;;;;;32.26;44.31;96741.66;5035193;28;20029;-66
2023/08/18 10:05:34;;;;;;;6.65;2.70;;;;;;;32.47;44.05;96736.53;5035267;28;20025;-66
2023/08/18 10:08:02;;;;;;;7.80;2.80;;;;;;;32.56;43.54;96739.13;5035597;28;20057;-66
2023/08/18 10:10:28;;;;;;;5.22;2.30;;;;;;;32.36;44.42;96736.53;5035251;28;20026;-67
2023/08/18 10:12:54;;;;;;;8.15;2.90;;;;;;;30.74;47.61;96727.50;5035090;28;20504;-67
2023/08/18 10:15:20;;;;;;;5.65;2.60;;;;;;;31.63;45.72;96728.56;5035977;28;20091;-66
2023/08/18 10:17:46;;;;;;;6.85;2.90;;;;;;;30.57;48.12;96732.22;5037345;28;20029;-66
2023/08/18 10:20:12;;;;;;;5.13;2.58;;;;;;;31.51;46.39;96726.97;5035722;28;20021;-66
2023/08/18 10:22:38;;;;;;;6.22;2.92;;;;;;;32.62;43.51;96727.81;5034825;28;20494;-66
2023/08/18 10:25:06;;;;;;;5.75;2.35;;;;;;;32.92;42.93;96736.56;5033856;28;20186;-66
2023/08/18 10:27:43;;;;;;;7.80;2.53;;;;;;;32.41;43.46;96735.75;5035020;28;20026;-66
2023/08/18 10:30:08;;;;;;;4.70;2.67;;;;;;;33.32;41.83;96739.38;5034685;28;20479;-68
2023/08/18 10:32:34;;;;;;;6.67;2.57;;;;;;;33.23;42.11;96731.91;5034599;28;20108;-66
2023/08/18 10:35:25;;;;;;;5.80;2.67;;;;;;;31.34;45.60;96724.03;5035502;28;20351;-66
2023/08/18 10:37:55;;;;;;;4.47;2.33;;;;;;;32.29;45.13;96723.66;5035071;28;20594;-66
2023/08/18 10:40:28;;;;;;;11.43;2.40;;;;;;;32.83;43.50;96727.56;5035032;28;20059;-66
2023/08/18 10:43:01;;;;;;;5.57;2.50;;;;;;;31.78;45.13;96717.03;5035963;28;20044;-66
2023/08/18 10:45:28;;;;;;;5.07;2.67;;;;;;;32.43;44.26;96723.91;5034714;28;20063;-67
2023/08/18 10:47:57;;;;;;;6.72;2.63;;;;;;;32.71;43.54;96721.88;5034817;28;20057;-66
2023/08/18 10:50:24;;;;;;;6.30;2.90;;;;;;;32.50;44.18;96712.06;5035063;28;20442;-66
2023/08/18 10:52:55;;;;;;;5.60;2.75;;;;;;;32.44;44.16;96706.38;5034219;28;20029;-66
2023/08/18 10:55:27;;;;;;;7.57;2.55;;;;;;;32.04;44.48;96714.06;5034875;28;20108;-66
2023/08/18 10:57:53;;;;;;;6.25;2.33;;;;;;;31.49;46.15;96709.72;5034821;28;20021;-66
2023/08/18 11:00:19;;;;;;;6.70;2.60;;;;;;;31.42;46.41;96703.25;5037697;28;20548;-65
2023/08/18 11:02:47;;;;;;;5.80;2.38;;;;;;;31.73;45.95;96700.81;5037015;28;20045;-66
2023/08/18 11:05:13;;;;;;;8.25;2.72;;;;;;;31.18;46.50;96689.50;5037020;28;20025;-66
2023/08/18 11:07:39;;;;;;;5.38;2.50;;;;;;;30.38;48.41;96698.69;5036204;28;20379;-66
2023/08/18 11:10:24;;;;;;;6.72;2.65;;;;;;;30.43;48.32;96695.13;5035374;28;20025;-66
2023/08/18 11:12:52;;;;;;;11.82;2.83;;;;;;;30.45;49.01;96701.06;5034142;28;20545;-66
2023/08/18 11:15:19;;;;;;;7.53;2.97;;;;;;;30.58;49.85;96691.41;5034555;28;20038;-66
2023/08/18 11:17:45;;;;;;;10.88;2.80;;;;;;;30.72;48.61;96693.31;5036604;28;20097;-65
2023/08/18 11:20:13;;;;;;;9.57;3.20;;;;;;;30.14;50.90;96693.28;5035375;28;20040;-66
2023/08/18 11:22:39;;;;;;;6.18;2.65;;;;;;;30.15;49.91;96686.38;5034114;28;20511;-66
2023/08/18 11:25:06;;;;;;;5.40;2.70;;;;;;;29.87;51.84;96686.88;5034396;28;20581;-66
2023/08/18 11:27:32;;;;;;;6.82;2.80;;;;;;;29.40;51.88;96686.03;5034594;28;20066;-65